createdAt,value
2024-05-09T00:00:47.312Z,101428.36
2024-05-09T00:03:35.211Z,101427.80
2024-05-09T00:06:03.283Z,101428.95
2024-05-09T00:08:31.442Z,101429.83
2024-05-09T00:10:59.374Z,101430.29
2024-05-09T00:13:27.380Z,101428.77
2024-05-09T00:15:55.165Z,101429.80
2024-05-09T00:18:22.984Z,101428.38
2024-05-09T00:20:50.863Z,101427.37
2024-05-09T00:23:18.916Z,101427.93
2024-05-09T00:25:46.720Z,101425.67
2024-05-09T00:28:14.510Z,101423.36
2024-05-09T00:30:42.432Z,101428.30
2024-05-09T00:33:11.202Z,101427.70
2024-05-09T00:35:39.992Z,101429.58
2024-05-09T00:38:08.153Z,101427.19
2024-05-09T00:40:41.830Z,101428.08
2024-05-09T00:43:12.563Z,101422.75
2024-05-09T00:45:42.481Z,101421.16
2024-05-09T00:48:14.226Z,101422.34
2024-05-09T00:50:45.130Z,101416.86
2024-05-09T00:53:14.608Z,101420.54
2024-05-09T00:55:43.226Z,101417.27
2024-05-09T00:58:12.467Z,101416.36
2024-05-09T01:00:41.479Z,101413.87
2024-05-09T01:03:11.997Z,101411.33
2024-05-09T01:05:42.830Z,101414.28
2024-05-09T01:08:11.685Z,101416.40
2024-05-09T01:10:42.804Z,101412.47
2024-05-09T01:13:12.968Z,101412.84
2024-05-09T01:15:41.180Z,101410.14
2024-05-09T01:18:11.697Z,101411.38
2024-05-09T01:20:44.213Z,101406.44
2024-05-09T01:23:15.257Z,101404.50
2024-05-09T01:25:46.136Z,101405.23
2024-05-09T01:28:15.022Z,101407.35
2024-05-09T01:30:42.794Z,101412.70
2024-05-09T01:33:12.100Z,101412.39
2024-05-09T01:35:42.104Z,101411.80
2024-05-09T01:38:16.839Z,101413.16
2024-05-09T01:40:45.241Z,101409.66
2024-05-09T01:43:12.962Z,101412.73
2024-05-09T01:45:41.193Z,101411.96
2024-05-09T01:48:09.779Z,101403.89
2024-05-09T01:50:41.384Z,101411.23
2024-05-09T01:53:11.686Z,101416.10
2024-05-09T01:55:40.174Z,101424.52
2024-05-09T01:58:08.664Z,101426.59
2024-05-09T02:00:40.524Z,101426.15
2024-05-09T02:03:15.002Z,101422.06
2024-05-09T02:05:47.051Z,101424.89
2024-05-09T02:08:17.327Z,101426.67
2024-05-09T02:10:47.281Z,101430.03
2024-05-09T02:13:16.272Z,101429.23
2024-05-09T02:15:44.489Z,101426.67
2024-05-09T02:18:13.125Z,101427.06
2024-05-09T02:20:42.191Z,101431.12
2024-05-09T02:23:10.822Z,101431.63
2024-05-09T02:25:38.497Z,101430.57
2024-05-09T02:28:06.362Z,101431.37
2024-05-09T02:30:39.698Z,101432.83
2024-05-09T02:33:11.925Z,101430.84
2024-05-09T02:35:42.376Z,101431.33
2024-05-09T02:38:10.917Z,101431.73
2024-05-09T02:40:40.037Z,101431.21
2024-05-09T02:43:10.401Z,101428.06
2024-05-09T02:45:40.036Z,101424.11
2024-05-09T02:48:13.169Z,101424.98
2024-05-09T02:50:43.916Z,101428.73
2024-05-09T02:53:12.139Z,101428.22
2024-05-09T02:55:41.437Z,101430.17
2024-05-09T02:58:10.351Z,101433.33
2024-05-09T03:00:41.485Z,101430.73
2024-05-09T03:03:13.220Z,101435.39
2024-05-09T03:05:44.759Z,101432.89
2024-05-09T03:08:13.176Z,101433.04
2024-05-09T03:10:41.237Z,101434.46
2024-05-09T03:13:14.842Z,101436.76
2024-05-09T03:15:44.515Z,101437.11
2024-05-09T03:18:13.082Z,101443.48
2024-05-09T03:20:43.550Z,101440.73
2024-05-09T03:23:11.824Z,101444.05
2024-05-09T03:25:39.787Z,101447.91
2024-05-09T03:28:07.529Z,101447.93
2024-05-09T03:30:40.720Z,101446.49
2024-05-09T03:33:12.074Z,101450.54
2024-05-09T03:35:41.111Z,101454.43
2024-05-09T03:38:09.279Z,101450.73
2024-05-09T03:40:43.655Z,101452.84
2024-05-09T03:43:12.838Z,101455.44
2024-05-09T03:45:40.513Z,101449.91
2024-05-09T03:48:08.846Z,101454.98
2024-05-09T03:50:37.447Z,101450.19
2024-05-09T03:53:05.789Z,101451.13
2024-05-09T03:55:33.457Z,101448.35
2024-05-09T03:58:01.135Z,101450.83
2024-05-09T04:00:35.818Z,101452.05
2024-05-09T04:03:09.026Z,101454.17
2024-05-09T04:05:40.951Z,101455.73
2024-05-09T04:08:12.404Z,101461.48
2024-05-09T04:10:40.913Z,101462.02
2024-05-09T04:13:10.020Z,101460.95
2024-05-09T04:15:37.894Z,101462.95
2024-05-09T04:18:08.698Z,101460.41
2024-05-09T04:20:39.733Z,101460.02
2024-05-09T04:23:13.549Z,101460.25
2024-05-09T04:25:43.337Z,101462.02
2024-05-09T04:28:14.078Z,101459.77
2024-05-09T04:30:42.661Z,101455.90
2024-05-09T04:33:13.296Z,101456.00
2024-05-09T04:35:43.406Z,101455.56
2024-05-09T04:38:12.778Z,101458.96
2024-05-09T04:40:40.982Z,101460.90
2024-05-09T04:43:14.974Z,101462.14
2024-05-09T04:45:42.703Z,101463.17
2024-05-09T04:48:13.568Z,101463.59
2024-05-09T04:50:49.962Z,101464.25
2024-05-09T04:53:28.010Z,101467.19
2024-05-09T05:03:04.616Z,101460.65
2024-05-09T05:09:00.797Z,101461.02
2024-05-09T05:11:34.990Z,101456.05
2024-05-09T05:14:02.827Z,101457.23
2024-05-09T05:16:30.585Z,101451.76
2024-05-09T05:18:58.323Z,101450.89
2024-05-09T05:21:26.434Z,101452.17
2024-05-09T05:23:54.256Z,101455.29
2024-05-09T05:26:22.058Z,101453.78
2024-05-09T05:28:50.854Z,101453.47
2024-05-09T05:31:18.499Z,101446.96
2024-05-09T05:33:48.493Z,101443.69
2024-05-09T05:36:16.554Z,101449.03
2024-05-09T05:38:45.145Z,101449.25
2024-05-09T05:41:13.019Z,101448.20
2024-05-09T05:43:40.730Z,101449.27
2024-05-09T05:46:08.409Z,101452.98
2024-05-09T05:48:36.246Z,101451.98
2024-05-09T05:51:05.594Z,101451.57
2024-05-09T05:53:33.758Z,101452.67
2024-05-09T05:56:01.622Z,101455.42
2024-05-09T05:58:29.422Z,101454.73
2024-05-09T06:00:57.326Z,101457.02
2024-05-09T06:03:25.048Z,101453.92
2024-05-09T06:05:52.958Z,101459.04
2024-05-09T06:08:20.898Z,101454.95
2024-05-09T06:10:48.818Z,101458.84
2024-05-09T06:13:16.684Z,101464.05
2024-05-09T06:15:44.436Z,101462.16
2024-05-09T06:18:14.763Z,101463.73
2024-05-09T06:20:43.979Z,101466.33
2024-05-09T06:23:13.125Z,101470.30
2024-05-09T06:25:42.069Z,101470.60
2024-05-09T06:28:10.360Z,101469.13
2024-05-09T06:30:41.887Z,101466.02
2024-05-09T06:33:13.416Z,101462.73
2024-05-09T06:35:44.175Z,101462.80
2024-05-09T06:38:12.538Z,101462.28
2024-05-09T06:40:42.437Z,101464.65
2024-05-09T06:43:13.936Z,101464.61
2024-05-09T06:45:42.199Z,101466.08
2024-05-09T06:48:10.475Z,101469.30
2024-05-09T06:50:39.841Z,101468.35
2024-05-09T06:53:08.560Z,101462.52
2024-05-09T06:55:39.358Z,101461.07
2024-05-09T06:58:07.552Z,101457.88
2024-05-09T07:00:39.531Z,101460.30
2024-05-09T07:03:11.175Z,101458.39
2024-05-09T07:05:40.308Z,101463.78
2024-05-09T07:08:08.334Z,101465.27
2024-05-09T07:10:41.450Z,101464.02
2024-05-09T07:13:09.888Z,101464.43
2024-05-09T07:15:38.235Z,101463.74
2024-05-09T07:18:15.378Z,101462.27
2024-05-09T07:20:43.552Z,101452.79
2024-05-09T07:23:12.137Z,101455.26
2024-05-09T07:25:41.087Z,101456.09
2024-05-09T07:28:17.190Z,101455.91
2024-05-09T07:30:45.331Z,101455.70
2024-05-09T07:33:22.495Z,101457.91
2024-05-09T07:35:51.888Z,101454.36
2024-05-09T07:38:19.831Z,101456.56
2024-05-09T07:40:47.724Z,101456.07
2024-05-09T07:43:16.346Z,101455.01
2024-05-09T07:45:51.962Z,101456.29
2024-05-09T07:52:38.345Z,101452.75
2024-05-09T07:53:47.216Z,101451.55
2024-05-09T07:56:20.111Z,101447.33
2024-05-09T07:58:51.865Z,101439.19
2024-05-09T08:01:20.539Z,101439.52
2024-05-09T08:03:48.898Z,101434.55
2024-05-09T08:06:16.799Z,101430.03
2024-05-09T08:08:48.787Z,101433.15
2024-05-09T08:11:16.669Z,101431.67
2024-05-09T08:13:44.348Z,101430.95
2024-05-09T08:16:14.103Z,101431.96
2024-05-09T08:18:42.170Z,101432.90
2024-05-09T08:21:10.050Z,101437.36
2024-05-09T08:23:37.747Z,101434.84
2024-05-09T08:26:05.588Z,101429.95
2024-05-09T08:28:33.372Z,101428.56
2024-05-09T08:31:04.215Z,101431.14
2024-05-09T08:33:34.047Z,101434.70
2024-05-09T08:36:01.923Z,101433.08
2024-05-09T08:38:29.623Z,101433.50
2024-05-09T08:40:57.254Z,101436.73
2024-05-09T08:43:26.593Z,101435.11
2024-05-09T08:45:54.402Z,101438.48
2024-05-09T08:48:24.028Z,101434.02
2024-05-09T08:50:53.011Z,101431.27
2024-05-09T08:53:21.173Z,101426.55
2024-05-09T08:55:49.474Z,101423.69
2024-05-09T08:58:19.049Z,101421.90
2024-05-09T09:00:47.949Z,101427.88
2024-05-09T09:03:18.515Z,101425.11
2024-05-09T09:05:58.592Z,101430.23
2024-05-09T09:08:26.549Z,101434.43
2024-05-09T09:11:03.147Z,101432.27
2024-05-09T09:13:31.134Z,101429.25
2024-05-09T09:15:59.815Z,101427.88
2024-05-09T09:18:30.031Z,101431.67
2024-05-09T09:20:58.236Z,101430.39
2024-05-09T09:23:29.813Z,101429.27
2024-05-09T09:25:59.570Z,101429.27
2024-05-09T09:28:27.378Z,101428.80
2024-05-09T09:31:01.745Z,101424.71
2024-05-09T09:33:32.977Z,101429.44
2024-05-09T09:36:04.979Z,101432.11
2024-05-09T09:38:36.613Z,101431.59
2024-05-09T09:41:07.317Z,101428.17
2024-05-09T09:43:35.921Z,101424.17
2024-05-09T09:46:04.052Z,101419.96
2024-05-09T09:48:32.624Z,101421.20
2024-05-09T09:51:00.863Z,101418.48
2024-05-09T09:53:29.198Z,101419.10
2024-05-09T09:55:58.909Z,101424.51
2024-05-09T09:58:27.313Z,101418.90
2024-05-09T10:00:55.532Z,101413.69
2024-05-09T10:03:23.426Z,101413.83
2024-05-09T10:05:51.591Z,101416.12
2024-05-09T10:08:19.406Z,101411.10
2024-05-09T10:10:47.568Z,101404.92
2024-05-09T10:13:16.316Z,101404.62
2024-05-09T10:15:54.420Z,101408.39
2024-05-09T10:18:29.547Z,101402.15
2024-05-09T10:20:59.937Z,101397.61
2024-05-09T10:23:31.979Z,101397.21
2024-05-09T10:26:01.560Z,101397.67
2024-05-09T10:28:35.033Z,101397.55
2024-05-09T10:31:10.875Z,101394.80
2024-05-09T10:33:47.956Z,101392.79
2024-05-09T10:36:24.182Z,101386.48
2024-05-09T10:38:53.811Z,101385.31
2024-05-09T10:41:22.652Z,101384.23
2024-05-09T10:43:50.789Z,101385.55
2024-05-09T10:46:18.901Z,101384.80
2024-05-09T10:48:47.374Z,101376.66
2024-05-09T10:51:17.178Z,101376.42
2024-05-09T10:53:46.530Z,101376.35
2024-05-09T10:56:14.853Z,101374.61
2024-05-09T10:58:42.676Z,101368.19
2024-05-09T11:01:11.136Z,101368.57
2024-05-09T11:03:39.753Z,101371.17
2024-05-09T11:06:09.564Z,101374.08
2024-05-09T11:08:37.845Z,101367.70
2024-05-09T11:11:07.739Z,101369.44
2024-05-09T11:13:40.124Z,101365.13
2024-05-09T11:16:20.755Z,101362.98
2024-05-09T11:18:56.809Z,101363.36
2024-05-09T11:21:24.999Z,101366.46
2024-05-09T11:23:52.859Z,101362.44
2024-05-09T11:26:21.887Z,101360.33
2024-05-09T11:28:50.543Z,101361.48
2024-05-09T11:31:18.773Z,101355.98
2024-05-09T11:33:47.117Z,101347.66
2024-05-09T11:36:15.363Z,101342.43
2024-05-09T11:38:43.283Z,101340.52
2024-05-09T11:41:18.079Z,101343.93
2024-05-09T11:43:45.752Z,101337.39
2024-05-09T11:46:13.807Z,101337.05
2024-05-09T11:48:42.008Z,101335.88
2024-05-09T11:51:09.840Z,101330.97
2024-05-09T11:53:37.703Z,101330.66
2024-05-09T11:56:05.807Z,101323.36
2024-05-09T11:58:34.766Z,101325.05
2024-05-09T12:01:03.049Z,101332.98
2024-05-09T12:03:31.273Z,101329.11
2024-05-09T12:05:59.402Z,101325.56
2024-05-09T12:08:27.269Z,101325.29
2024-05-09T12:10:55.100Z,101321.06
2024-05-09T12:13:23.222Z,101318.59
2024-05-09T12:15:51.058Z,101319.63
2024-05-09T12:18:18.898Z,101312.16
2024-05-09T12:20:46.658Z,101312.05
2024-05-09T12:23:14.401Z,101312.83
2024-05-09T12:25:42.211Z,101310.73
2024-05-09T12:28:10.011Z,101312.02
2024-05-09T12:30:40.074Z,101307.14
2024-05-09T12:33:13.393Z,101304.37
2024-05-09T12:35:44.405Z,101303.40
2024-05-09T12:38:15.300Z,101300.10
2024-05-09T12:40:43.772Z,101295.21
2024-05-09T12:43:12.076Z,101297.33
2024-05-09T12:45:40.357Z,101296.19
2024-05-09T12:48:12.057Z,101293.70
2024-05-09T12:50:40.747Z,101293.88
2024-05-09T12:53:08.775Z,101297.64
2024-05-09T12:55:44.169Z,101289.00
2024-05-09T12:58:22.106Z,101287.16
2024-05-09T13:00:51.846Z,101282.80
2024-05-09T13:03:19.779Z,101281.31
2024-05-09T13:05:49.179Z,101275.14
2024-05-09T13:08:17.167Z,101273.52
2024-05-09T13:10:44.984Z,101264.61
2024-05-09T13:13:12.869Z,101263.68
2024-05-09T13:15:40.818Z,101260.04
2024-05-09T13:18:09.069Z,101255.04
2024-05-09T13:20:37.257Z,101252.53
2024-05-09T13:23:07.348Z,101247.80
2024-05-09T13:25:37.775Z,101255.39
2024-05-09T13:28:07.584Z,101252.23
2024-05-09T13:30:40.428Z,101249.45
2024-05-09T13:33:12.009Z,101242.90
2024-05-09T13:35:47.694Z,101241.73
2024-05-09T13:38:19.304Z,101238.34
2024-05-09T13:40:48.007Z,101240.38
2024-05-09T13:43:16.177Z,101235.63
2024-05-09T13:45:44.131Z,101236.15
2024-05-09T13:48:12.073Z,101235.75
2024-05-09T13:50:40.007Z,101237.63
2024-05-09T13:53:08.719Z,101236.15
2024-05-09T13:55:38.258Z,101235.42
2024-05-09T13:58:06.837Z,101228.88
2024-05-09T14:03:05.672Z,101223.70
2024-05-09T14:05:33.625Z,101223.61
2024-05-09T14:08:01.876Z,101220.02
2024-05-09T14:10:31.755Z,101220.91
2024-05-09T14:13:00.926Z,101215.20
2024-05-09T14:15:28.948Z,101210.68
2024-05-09T14:17:56.696Z,101212.30
2024-05-09T14:20:30.901Z,101214.57
2024-05-09T14:23:00.711Z,101213.41
2024-05-09T14:25:29.933Z,101210.86
2024-05-09T14:27:58.421Z,101211.48
2024-05-09T14:30:34.529Z,101204.31
2024-05-09T14:33:06.691Z,101198.71
2024-05-09T14:35:35.591Z,101199.02
2024-05-09T14:38:04.183Z,101193.54
2024-05-09T14:40:40.400Z,101193.73
2024-05-09T14:43:12.186Z,101191.59
2024-05-09T14:45:40.606Z,101192.86
2024-05-09T14:48:08.832Z,101189.73
2024-05-09T14:50:39.300Z,101184.44
2024-05-09T14:53:09.714Z,101183.20
2024-05-09T14:55:42.913Z,101177.91
2024-05-09T14:58:12.828Z,101176.04
2024-05-09T15:00:46.363Z,101173.77
2024-05-09T15:03:21.815Z,101170.98
2024-05-09T15:05:51.383Z,101168.86
2024-05-09T15:08:19.920Z,101169.44
2024-05-09T15:10:49.631Z,101169.15
2024-05-09T15:13:19.485Z,101164.73
2024-05-09T15:15:48.067Z,101170.97
2024-05-09T15:18:16.296Z,101168.07
2024-05-09T15:20:44.776Z,101167.76
2024-05-09T15:23:13.252Z,101162.83
2024-05-09T15:25:40.963Z,101160.29
2024-05-09T15:28:08.804Z,101157.84
2024-05-09T15:30:37.334Z,101154.41
2024-05-09T15:33:06.846Z,101154.23
2024-05-09T15:35:36.056Z,101146.89
2024-05-09T15:38:04.580Z,101142.13
2024-05-09T15:40:39.104Z,101140.17
2024-05-09T15:43:10.866Z,101138.58
2024-05-09T15:45:40.919Z,101130.45
2024-05-09T15:48:10.314Z,101134.08
2024-05-09T15:50:41.318Z,101128.80
2024-05-09T15:53:12.374Z,101132.04
2024-05-09T15:55:42.299Z,101128.73
2024-05-09T15:58:10.442Z,101123.05
2024-05-09T16:00:42.018Z,101126.77
2024-05-09T16:03:13.632Z,101124.70
2024-05-09T16:05:44.598Z,101124.31
2024-05-09T16:08:13.525Z,101123.48
2024-05-09T16:10:45.897Z,101121.59
2024-05-09T16:13:15.398Z,101123.30
2024-05-09T16:15:43.934Z,101121.75
2024-05-09T16:18:12.237Z,101116.63
2024-05-09T16:20:42.313Z,101116.55
2024-05-09T16:23:12.486Z,101115.08
2024-05-09T16:25:45.071Z,101110.91
2024-05-09T16:28:13.217Z,101110.45
2024-05-09T16:30:41.567Z,101107.70
2024-05-09T16:33:11.711Z,101103.36
2024-05-09T16:35:40.571Z,101107.20
2024-05-09T16:38:08.492Z,101105.74
2024-05-09T16:40:39.963Z,101110.79
2024-05-09T16:43:10.542Z,101115.38
2024-05-09T16:45:46.093Z,101108.80
2024-05-09T16:48:14.692Z,101104.23
2024-05-09T16:50:42.833Z,101108.35
2024-05-09T16:53:10.510Z,101106.77
2024-05-09T16:55:38.481Z,101110.92
2024-05-09T16:58:08.332Z,101110.05
2024-05-09T17:00:41.572Z,101110.92
2024-05-09T17:03:14.909Z,101106.64
2024-05-09T17:05:46.744Z,101107.15
2024-05-09T17:08:17.899Z,101104.27
2024-05-09T17:10:48.518Z,101102.46
2024-05-09T17:13:17.294Z,101107.80
2024-05-09T17:15:45.515Z,101110.21
2024-05-09T17:18:13.641Z,101111.27
2024-05-09T17:20:41.481Z,101111.98
2024-05-09T17:23:13.128Z,101107.67
2024-05-09T17:25:41.952Z,101107.09
2024-05-09T17:28:10.699Z,101105.09
2024-05-09T17:30:40.618Z,101109.76
2024-05-09T17:33:10.958Z,101107.77
2024-05-09T17:35:40.066Z,101106.99
2024-05-09T17:38:07.937Z,101107.76
2024-05-09T17:40:37.619Z,101108.08
2024-05-09T17:43:09.083Z,101108.91
2024-05-09T17:45:41.735Z,101109.36
2024-05-09T17:48:11.410Z,101102.91
2024-05-09T17:50:41.480Z,101103.88
2024-05-09T17:53:10.136Z,101103.05
2024-05-09T17:55:37.934Z,101103.73
2024-05-09T17:58:06.077Z,101105.95
2024-05-09T18:00:39.028Z,101109.98
2024-05-09T18:03:11.811Z,101111.37
2024-05-09T18:05:41.535Z,101111.13
2024-05-09T18:08:09.664Z,101108.91
2024-05-09T18:10:40.404Z,101109.52
2024-05-09T18:13:09.301Z,101109.77
2024-05-09T18:15:38.053Z,101110.02
2024-05-09T18:18:06.942Z,101109.96
2024-05-09T18:20:42.449Z,101111.84
2024-05-09T18:23:16.102Z,101113.55
2024-05-09T18:25:46.098Z,101113.37
2024-05-09T18:28:14.525Z,101113.92
2024-05-09T18:30:42.932Z,101116.70
2024-05-09T18:33:11.671Z,101120.36
2024-05-09T18:35:44.048Z,101123.13
2024-05-09T18:38:11.847Z,101124.10
2024-05-09T18:40:41.169Z,101125.36
2024-05-09T18:43:11.722Z,101129.72
2024-05-09T18:45:39.967Z,101131.36
2024-05-09T18:48:09.665Z,101131.08
2024-05-09T18:50:40.477Z,101132.18
2024-05-09T18:53:11.819Z,101135.46
2024-05-09T18:55:43.599Z,101137.33
2024-05-09T18:58:11.593Z,101141.41
2024-05-09T19:00:41.781Z,101145.04
2024-05-09T19:03:13.842Z,101146.17
2024-05-09T19:05:44.208Z,101148.09
2024-05-09T19:08:14.513Z,101153.14
2024-05-09T19:10:42.409Z,101153.61
2024-05-09T19:13:12.780Z,101154.34
2024-05-09T19:15:42.901Z,101153.71
2024-05-09T19:18:13.246Z,101154.84
2024-05-09T19:20:42.120Z,101155.05
2024-05-09T19:23:11.284Z,101156.09
2024-05-09T19:25:39.155Z,101156.36
2024-05-09T19:28:06.878Z,101158.88
2024-05-09T19:30:40.079Z,101159.74
2024-05-09T19:33:13.030Z,101158.90
2024-05-09T19:35:42.796Z,101158.83
2024-05-09T19:38:11.700Z,101162.16
2024-05-09T19:40:39.755Z,101164.58
2024-05-09T19:43:07.784Z,101164.98
2024-05-09T19:45:36.491Z,101169.09
2024-05-09T19:48:06.085Z,101169.59
2024-05-09T19:50:41.424Z,101168.85
2024-05-09T19:53:13.759Z,101172.46
2024-05-09T19:55:42.538Z,101172.61
2024-05-09T19:58:11.545Z,101174.02
2024-05-09T20:00:42.618Z,101171.89
2024-05-09T20:03:14.110Z,101174.30
2024-05-09T20:05:45.004Z,101172.91
2024-05-09T20:08:12.960Z,101169.30
2024-05-09T20:10:40.848Z,101173.52
2024-05-09T20:13:09.023Z,101174.22
2024-05-09T20:15:37.660Z,101172.23
2024-05-09T20:18:06.563Z,101169.83
2024-05-09T20:20:39.574Z,101170.31
2024-05-09T20:23:11.393Z,101168.60
2024-05-09T20:25:40.218Z,101168.96
2024-05-09T20:28:08.106Z,101169.34
2024-05-09T20:30:36.571Z,101171.79
2024-05-09T20:33:09.100Z,101167.90
2024-05-09T20:35:37.919Z,101167.52
2024-05-09T20:38:05.913Z,101168.36
2024-05-09T20:40:37.522Z,101166.22
2024-05-09T20:43:08.981Z,101168.38
2024-05-09T20:45:37.348Z,101167.71
2024-05-09T20:48:06.275Z,101166.42
2024-05-09T20:50:39.305Z,101168.48
2024-05-09T20:53:11.565Z,101168.73
2024-05-09T20:55:40.548Z,101171.31
2024-05-09T20:58:09.622Z,101174.88
2024-05-09T21:00:41.452Z,101173.19
2024-05-09T21:03:13.844Z,101179.50
2024-05-09T21:05:42.813Z,101175.34
2024-05-09T21:08:10.687Z,101177.42
2024-05-09T21:10:38.797Z,101177.77
2024-05-09T21:13:07.415Z,101178.94
2024-05-09T21:15:36.126Z,101181.52
2024-05-09T21:18:04.679Z,101176.31
2024-05-09T21:20:34.423Z,101176.94
2024-05-09T21:23:03.148Z,101176.64
2024-05-09T21:25:31.717Z,101173.29
2024-05-09T21:28:00.467Z,101174.31
2024-05-09T21:30:38.359Z,101176.06
2024-05-09T21:33:12.692Z,101173.77
2024-05-09T21:35:43.015Z,101173.59
2024-05-09T21:38:10.992Z,101174.35
2024-05-09T21:40:39.119Z,101172.63
2024-05-09T21:43:07.744Z,101170.02
2024-05-09T21:45:35.992Z,101171.79
2024-05-09T21:48:05.269Z,101174.42
2024-05-09T21:50:39.655Z,101171.86
2024-05-09T21:53:13.799Z,101172.09
2024-05-09T21:55:42.470Z,101169.63
2024-05-09T21:58:12.206Z,101174.79
2024-05-09T22:00:42.608Z,101173.42
2024-05-09T22:03:28.415Z,101173.14
2024-05-09T22:05:56.423Z,101172.60
2024-05-09T22:08:24.082Z,101172.40
2024-05-09T22:10:51.761Z,101172.23
2024-05-09T22:13:20.394Z,101172.94
2024-05-09T22:15:48.206Z,101167.55
2024-05-09T22:18:15.883Z,101162.30
2024-05-09T22:20:45.197Z,101170.52
2024-05-09T22:23:14.891Z,101174.30
2024-05-09T22:25:42.936Z,101176.59
2024-05-09T22:28:13.269Z,101174.67
2024-05-09T22:30:41.093Z,101174.41
2024-05-09T22:33:11.324Z,101174.91
2024-05-09T22:35:40.409Z,101176.24
2024-05-09T22:38:08.579Z,101172.45
2024-05-09T22:40:46.248Z,101172.30
2024-05-09T22:43:19.974Z,101173.87
2024-05-09T22:45:48.496Z,101172.47
2024-05-09T22:48:16.397Z,101176.89
2024-05-09T22:50:44.696Z,101174.48
2024-05-09T22:53:12.315Z,101175.31
2024-05-09T22:55:39.934Z,101174.86
2024-05-09T22:58:10.845Z,101174.42
2024-05-09T23:00:39.090Z,101175.80
2024-05-09T23:03:09.713Z,101171.98
2024-05-09T23:05:37.642Z,101167.43
2024-05-09T23:08:05.699Z,101163.08
2024-05-09T23:10:36.755Z,101166.70
2024-05-09T23:13:07.788Z,101166.73
2024-05-09T23:15:37.824Z,101162.79
2024-05-09T23:18:06.161Z,101160.52
2024-05-09T23:20:38.301Z,101156.19
2024-05-09T23:23:09.209Z,101155.60
2024-05-09T23:25:38.049Z,101152.29
2024-05-09T23:28:06.430Z,101152.45
2024-05-09T23:30:38.570Z,101153.34
2024-05-09T23:33:12.960Z,101148.45
2024-05-09T23:35:43.692Z,101152.74
2024-05-09T23:38:12.651Z,101148.41
2024-05-09T23:40:42.848Z,101152.67
2024-05-09T23:43:12.382Z,101145.45
2024-05-09T23:45:41.814Z,101145.86
2024-05-09T23:48:10.720Z,101142.39
2024-05-09T23:50:40.221Z,101141.25
2024-05-09T23:53:09.838Z,101141.52
2024-05-09T23:55:39.071Z,101143.55
2024-05-09T23:58:08.289Z,101144.54
